createdAt,value
2018-02-24T00:01:23.909Z,35.42
2018-02-24T00:03:54.867Z,32.47
2018-02-24T00:06:25.382Z,37.00
2018-02-24T00:08:56.068Z,34.03
2018-02-24T00:11:27.053Z,35.90
2018-02-24T00:13:56.704Z,35.28
2018-02-24T00:16:32.883Z,36.55
2018-02-24T00:19:02.574Z,40.05
2018-02-24T00:21:32.356Z,40.17
2018-02-24T00:24:03.009Z,36.97
2018-02-24T00:26:39.951Z,58.92
2018-02-24T00:29:26.627Z,34.90
2018-02-24T00:31:56.893Z,36.08
2018-02-24T00:34:27.010Z,45.92
2018-02-24T00:36:57.254Z,35.45
2018-02-24T00:39:26.856Z,42.15
2018-02-24T00:41:56.366Z,32.47
2018-02-24T00:44:27.153Z,34.95
2018-02-24T00:46:58.552Z,33.13
2018-02-24T00:49:28.161Z,39.25
2018-02-24T00:51:58.511Z,37.05
2018-02-24T00:54:29.533Z,34.60
2018-02-24T00:57:00.424Z,36.65
2018-02-24T00:59:30.160Z,39.42
2018-02-24T01:02:00.150Z,34.90
2018-02-24T01:04:29.294Z,33.78
2018-02-24T01:06:58.527Z,40.22
2018-02-24T01:09:30.563Z,34.65
2018-02-24T01:11:59.755Z,33.08
2018-02-24T01:14:30.021Z,32.72
2018-02-24T01:17:00.112Z,30.35
2018-02-24T01:19:29.283Z,38.53
2018-02-24T01:21:59.979Z,37.05
2018-02-24T01:24:29.328Z,35.58
2018-02-24T01:26:58.647Z,37.45
2018-02-24T01:29:28.745Z,33.80
2018-02-24T01:31:59.184Z,36.28
2018-02-24T01:34:28.498Z,35.45
2018-02-24T01:36:58.500Z,40.30
2018-02-24T01:39:28.100Z,38.72
2018-02-24T01:42:07.331Z,37.67
2018-02-24T01:44:38.683Z,32.60
2018-02-24T01:47:07.603Z,38.38
2018-02-24T01:49:36.306Z,37.28
2018-02-24T01:52:04.762Z,37.40
2018-02-24T01:54:32.846Z,36.78
2018-02-24T01:57:01.284Z,38.40
2018-02-24T01:59:31.594Z,36.95
2018-02-24T02:02:00.962Z,39.42
2018-02-24T02:04:30.316Z,31.58
2018-02-24T02:07:00.127Z,34.47
2018-02-24T02:09:29.229Z,39.58
2018-02-24T02:11:57.926Z,36.28
2018-02-24T02:14:26.411Z,36.15
2018-02-24T02:16:55.325Z,39.50
2018-02-24T02:19:24.507Z,39.03
2018-02-24T02:21:53.216Z,38.65
2018-02-24T02:24:22.776Z,38.92
2018-02-24T02:26:50.910Z,42.03
2018-02-24T02:29:18.885Z,37.75
2018-02-24T02:31:48.150Z,41.13
2018-02-24T02:34:16.565Z,37.65
2018-02-24T02:36:44.791Z,35.90
2018-02-24T02:39:13.476Z,34.58
2018-02-24T02:41:42.984Z,46.72
2018-02-24T02:44:11.938Z,35.53
2018-02-24T02:46:43.088Z,37.25
2018-02-24T02:49:11.800Z,42.47
2018-02-24T02:51:40.118Z,40.30
2018-02-24T02:54:08.380Z,38.42
2018-02-24T02:56:36.791Z,38.83
2018-02-24T02:59:06.068Z,35.20
2018-02-24T03:01:34.632Z,38.92
2018-02-24T03:04:03.026Z,38.88
2018-02-24T03:06:31.526Z,38.13
2018-02-24T03:09:00.591Z,35.75
2018-02-24T03:11:29.154Z,38.90
2018-02-24T03:13:57.464Z,40.08
2018-02-24T03:16:25.555Z,34.97
2018-02-24T03:18:54.787Z,34.45
2018-02-24T03:21:23.320Z,39.60
2018-02-24T03:23:53.002Z,41.90
2018-02-24T03:26:21.670Z,42.90
2018-02-24T03:28:51.249Z,38.17
2018-02-24T03:31:20.719Z,44.17
2018-02-24T03:33:49.678Z,43.45
2018-02-24T03:36:17.770Z,33.13
2018-02-24T03:38:48.708Z,41.97
2018-02-24T03:41:30.169Z,42.83
2018-02-24T03:44:04.740Z,38.35
2018-02-24T03:46:35.887Z,41.47
2018-02-24T03:49:06.971Z,39.42
2018-02-24T03:51:36.755Z,36.83
2018-02-24T03:54:17.794Z,32.42
2018-02-24T03:56:49.976Z,34.78
2018-02-24T03:59:22.573Z,45.88
2018-02-24T04:02:10.497Z,41.30
2018-02-24T04:04:43.418Z,39.47
2018-02-24T04:07:17.589Z,44.03
2018-02-24T04:09:49.675Z,37.80
2018-02-24T04:12:18.364Z,27.98
2018-02-24T04:14:52.826Z,38.72
2018-02-24T04:17:27.565Z,34.63
2018-02-24T04:19:58.414Z,41.53
2018-02-24T04:22:31.565Z,45.50
2018-02-24T04:25:07.249Z,40.17
2018-02-24T04:30:25.240Z,41.65
2018-02-24T04:32:53.925Z,38.83
2018-02-24T04:35:29.815Z,37.67
2018-02-24T04:38:05.288Z,41.90
2018-02-24T04:40:38.006Z,37.20
2018-02-24T04:43:15.737Z,34.72
2018-02-24T04:45:51.608Z,41.58
2018-02-24T04:48:24.667Z,40.45
2018-02-24T04:50:59.602Z,37.88
2018-02-24T04:53:32.943Z,35.45
2018-02-24T04:56:08.859Z,39.85
2018-02-24T04:58:48.257Z,36.63
2018-02-24T05:01:19.882Z,37.20
2018-02-24T05:03:53.101Z,35.50
2018-02-24T05:06:25.054Z,33.40
2018-02-24T05:08:57.916Z,35.95
2018-02-24T05:11:39.885Z,36.67
2018-02-24T05:14:10.173Z,39.80
2018-02-24T05:19:46.917Z,40.88
2018-02-24T05:22:17.166Z,33.15
2018-02-24T05:24:45.468Z,39.47
2018-02-24T05:27:13.567Z,41.60
2018-02-24T05:29:44.899Z,36.75
2018-02-24T05:32:17.639Z,34.70
2018-02-24T05:34:46.828Z,35.55
2018-02-24T05:37:15.326Z,30.95
2018-02-24T05:39:44.015Z,33.60
2018-02-24T05:42:11.987Z,32.17
2018-02-24T05:44:40.681Z,33.35
2018-02-24T05:47:08.787Z,29.40
2018-02-24T05:49:37.748Z,36.95
2018-02-24T05:52:05.838Z,28.17
2018-02-24T05:54:33.857Z,29.58
2018-02-24T05:57:01.991Z,32.78
2018-02-24T05:59:30.503Z,34.22
2018-02-24T06:01:59.207Z,28.05
2018-02-24T06:04:27.250Z,28.65
2018-02-24T06:06:56.640Z,27.42
2018-02-24T06:09:24.781Z,27.73
2018-02-24T06:11:54.927Z,33.55
2018-02-24T06:14:25.597Z,22.87
2018-02-24T06:16:54.007Z,29.77
2018-02-24T06:19:23.750Z,29.63
2018-02-24T06:21:52.361Z,28.23
2018-02-24T06:24:20.537Z,29.05
2018-02-24T06:26:48.918Z,29.70
2018-02-24T06:29:16.954Z,31.02
2018-02-24T06:31:58.221Z,27.67
2018-02-24T06:34:26.934Z,28.58
2018-02-24T06:36:56.541Z,30.88
2018-02-24T06:39:25.562Z,29.85
2018-02-24T06:42:00.550Z,30.20
2018-02-24T06:44:29.123Z,29.27
2018-02-24T06:46:58.513Z,26.77
2018-02-24T06:49:27.428Z,28.12
2018-02-24T06:52:12.640Z,22.62
2018-02-24T06:54:41.385Z,24.17
2018-02-24T06:57:19.884Z,28.60
2018-02-24T06:59:49.718Z,25.20
2018-02-24T07:02:19.352Z,31.58
2018-02-24T07:04:48.173Z,25.30
2018-02-24T07:07:17.026Z,27.10
2018-02-24T07:09:45.817Z,27.83
2018-02-24T07:12:14.956Z,27.95
2018-02-24T07:14:44.360Z,29.75
2018-02-24T07:17:13.414Z,28.92
2018-02-24T07:19:42.806Z,26.67
2018-02-24T07:22:11.968Z,29.95
2018-02-24T07:24:42.565Z,30.10
2018-02-24T07:27:11.742Z,28.05
2018-02-24T07:29:41.286Z,32.03
2018-02-24T07:32:10.107Z,31.45
2018-02-24T07:34:39.263Z,18.45
2018-02-24T07:37:09.036Z,28.55
2018-02-24T07:39:40.781Z,30.85
2018-02-24T07:42:12.612Z,29.67
2018-02-24T07:44:43.307Z,31.30
2018-02-24T07:47:14.535Z,28.83
2018-02-24T07:49:44.425Z,24.90
2018-02-24T07:52:17.950Z,25.50
2018-02-24T07:54:49.917Z,30.60
2018-02-24T07:57:20.163Z,24.63
2018-02-24T07:59:50.024Z,26.90
2018-02-24T08:02:21.912Z,30.52
2018-02-24T08:04:53.443Z,27.37
2018-02-24T08:07:22.767Z,24.50
2018-02-24T08:09:53.933Z,22.83
2018-02-24T08:12:24.085Z,26.70
2018-02-24T08:14:53.357Z,24.33
2018-02-24T08:17:24.008Z,23.65
2018-02-24T08:19:55.790Z,19.33
2018-02-24T08:22:26.768Z,20.85
2018-02-24T08:24:57.818Z,23.30
2018-02-24T08:27:37.637Z,19.33
2018-02-24T08:30:25.638Z,18.42
2018-02-24T08:32:56.577Z,19.55
2018-02-24T08:35:39.573Z,15.35
2018-02-24T08:38:26.451Z,19.65
2018-02-24T08:40:56.286Z,13.27
2018-02-24T08:43:27.613Z,14.75
2018-02-24T08:45:57.792Z,15.35
2018-02-24T08:48:28.161Z,10.90
2018-02-24T08:50:58.275Z,14.23
2018-02-24T08:53:35.640Z,17.08
2018-02-24T08:56:05.018Z,10.05
2018-02-24T08:58:35.632Z,12.13
2018-02-24T09:01:13.033Z,13.73
2018-02-24T09:03:43.834Z,16.20
2018-02-24T09:06:14.502Z,15.00
2018-02-24T09:08:44.679Z,17.35
2018-02-24T09:11:16.135Z,11.48
2018-02-24T09:13:45.716Z,18.40
2018-02-24T09:16:23.050Z,12.27
2018-02-24T09:18:54.660Z,15.35
2018-02-24T09:21:38.646Z,10.88
2018-02-24T09:24:22.170Z,13.52
2018-02-24T09:26:53.692Z,8.48
2018-02-24T09:29:36.786Z,12.93
2018-02-24T09:32:09.567Z,11.40
2018-02-24T09:34:43.527Z,11.85
2018-02-24T09:37:16.003Z,16.55
2018-02-24T09:39:47.300Z,12.52
2018-02-24T09:42:18.315Z,16.95
2018-02-24T09:44:49.053Z,16.27
2018-02-24T09:47:20.913Z,11.93
2018-02-24T09:49:50.950Z,10.32
2018-02-24T09:52:22.854Z,13.52
2018-02-24T09:54:57.858Z,15.48
2018-02-24T09:57:38.902Z,13.73
2018-02-24T10:00:12.170Z,14.40
2018-02-24T10:02:46.702Z,8.85
2018-02-24T10:05:16.416Z,7.85
2018-02-24T10:07:46.552Z,11.05
2018-02-24T10:10:15.945Z,8.32
2018-02-24T10:12:45.148Z,9.80
2018-02-24T10:15:14.989Z,10.35
2018-02-24T10:17:48.463Z,9.65
2018-02-24T10:20:19.043Z,11.30
2018-02-24T10:22:58.384Z,8.90
2018-02-24T10:25:28.178Z,10.60
2018-02-24T10:27:58.112Z,10.75
2018-02-24T10:30:28.378Z,12.85
2018-02-24T10:33:05.302Z,12.77
2018-02-24T10:35:35.962Z,8.05
2018-02-24T10:38:06.385Z,9.07
2018-02-24T10:40:45.025Z,10.90
2018-02-24T10:43:26.438Z,9.75
2018-02-24T10:45:56.408Z,9.23
2018-02-24T10:48:26.852Z,10.95
2018-02-24T10:50:56.557Z,7.78
2018-02-24T10:53:26.575Z,12.07
2018-02-24T10:55:56.804Z,7.85
2018-02-24T10:58:37.440Z,6.57
2018-02-24T11:01:06.918Z,7.85
2018-02-24T11:03:36.239Z,10.07
2018-02-24T11:06:14.049Z,8.48
2018-02-24T11:08:47.065Z,5.95
2018-02-24T11:11:37.744Z,9.10
2018-02-24T11:14:14.404Z,8.35
2018-02-24T11:16:44.359Z,3.65
2018-02-24T11:19:14.556Z,8.25
2018-02-24T11:21:53.426Z,7.65
2018-02-24T11:24:35.021Z,11.35
2018-02-24T11:27:15.186Z,7.30
2018-02-24T11:30:14.890Z,11.30
2018-02-24T11:32:48.643Z,10.65
2018-02-24T11:35:23.370Z,7.75
2018-02-24T11:37:53.541Z,7.97
2018-02-24T11:40:33.207Z,8.70
2018-02-24T11:43:04.226Z,9.88
2018-02-24T11:45:38.465Z,9.38
2018-02-24T11:48:27.724Z,10.38
2018-02-24T11:51:14.237Z,6.93
2018-02-24T11:54:03.548Z,9.18
2018-02-24T11:56:33.093Z,8.13
2018-02-24T11:59:04.350Z,13.73
2018-02-24T12:01:35.546Z,7.47
2018-02-24T12:04:05.715Z,9.85
2018-02-24T12:06:35.020Z,10.25
2018-02-24T12:09:04.814Z,9.57
2018-02-24T12:11:45.704Z,11.20
2018-02-24T12:14:16.778Z,12.60
2018-02-24T12:16:47.166Z,7.28
2018-02-24T12:19:16.956Z,13.50
2018-02-24T12:21:48.364Z,10.55
2018-02-24T12:24:20.201Z,8.57
2018-02-24T12:26:52.948Z,7.95
2018-02-24T12:29:21.907Z,7.62
2018-02-24T12:31:51.787Z,7.75
2018-02-24T12:34:21.672Z,10.13
2018-02-24T12:36:51.126Z,15.73
2018-02-24T12:39:21.285Z,7.85
2018-02-24T12:41:52.241Z,11.23
2018-02-24T12:44:30.585Z,8.00
2018-02-24T12:47:00.936Z,8.38
2018-02-24T12:49:30.565Z,10.88
2018-02-24T12:52:13.341Z,15.43
2018-02-24T12:54:42.571Z,10.35
2018-02-24T12:57:12.092Z,10.52
2018-02-24T12:59:41.039Z,10.82
2018-02-24T13:02:11.166Z,12.43
2018-02-24T13:04:40.693Z,15.40
2018-02-24T13:07:11.057Z,8.88
2018-02-24T13:09:40.540Z,9.80
2018-02-24T13:12:31.854Z,13.13
2018-02-24T13:15:23.626Z,14.93
2018-02-24T13:21:26.492Z,16.98
2018-02-24T13:23:55.931Z,10.27
2018-02-24T13:26:25.183Z,9.90
2018-02-24T13:28:54.347Z,17.70
2018-02-24T13:31:25.256Z,9.40
2018-02-24T13:33:54.852Z,8.32
2018-02-24T13:36:28.877Z,13.50
2018-02-24T13:38:59.712Z,10.85
2018-02-24T13:41:33.040Z,9.80
2018-02-24T13:44:17.455Z,11.90
2018-02-24T13:46:47.427Z,12.57
2018-02-24T13:49:22.472Z,10.80
2018-02-24T13:51:51.412Z,9.05
2018-02-24T13:54:20.767Z,6.35
2018-02-24T13:56:51.493Z,8.45
2018-02-24T13:59:22.853Z,8.82
2018-02-24T14:01:56.944Z,11.85
2018-02-24T14:04:37.793Z,10.10
2018-02-24T14:07:08.886Z,8.38
2018-02-24T14:09:43.109Z,10.07
2018-02-24T14:12:13.257Z,9.27
2018-02-24T14:14:43.643Z,9.70
2018-02-24T14:17:13.162Z,5.82
2018-02-24T14:19:45.955Z,8.85
2018-02-24T14:22:16.959Z,8.55
2018-02-24T14:24:48.555Z,6.05
2018-02-24T14:27:18.091Z,12.23
2018-02-24T14:29:46.893Z,7.12
2018-02-24T14:32:21.966Z,13.23
2018-02-24T14:34:50.940Z,7.97
2018-02-24T14:37:31.431Z,9.25
2018-02-24T14:40:09.753Z,6.20
2018-02-24T14:42:41.597Z,5.78
2018-02-24T14:45:11.986Z,9.40
2018-02-24T14:47:51.941Z,7.45
2018-02-24T14:50:27.864Z,3.00
2018-02-24T14:52:57.490Z,7.07
2018-02-24T14:55:41.184Z,5.20
2018-02-24T14:58:36.775Z,6.05
2018-02-24T15:01:25.198Z,4.43
2018-02-24T15:03:56.465Z,4.28
2018-02-24T15:06:27.052Z,7.57
2018-02-24T15:08:59.547Z,6.80
2018-02-24T15:11:31.747Z,5.43
2018-02-24T15:14:06.056Z,5.80
2018-02-24T15:16:37.600Z,5.80
2018-02-24T15:19:07.261Z,10.32
2018-02-24T15:21:36.562Z,4.90
2018-02-24T15:24:10.299Z,3.78
2018-02-24T15:26:40.537Z,7.47
2018-02-24T15:29:15.112Z,6.53
2018-02-24T15:31:44.064Z,7.32
2018-02-24T15:34:20.791Z,5.57
2018-02-24T15:36:52.804Z,9.80
2018-02-24T15:39:23.674Z,4.07
2018-02-24T15:41:55.603Z,2.62
2018-02-24T15:44:30.779Z,4.47
2018-02-24T15:47:01.638Z,5.62
2018-02-24T15:49:45.778Z,4.80
2018-02-24T15:52:16.662Z,2.92
2018-02-24T15:54:47.177Z,3.75
2018-02-24T15:57:17.684Z,3.20
2018-02-24T15:59:47.606Z,2.37
2018-02-24T16:02:25.199Z,2.20
2018-02-24T16:05:02.653Z,2.83
2018-02-24T16:07:33.948Z,2.47
2018-02-24T16:10:12.648Z,1.85
2018-02-24T16:12:44.387Z,4.20
2018-02-24T16:15:14.357Z,3.20
2018-02-24T16:17:53.522Z,1.62
2018-02-24T16:20:23.872Z,1.73
2018-02-24T16:23:06.783Z,1.80
2018-02-24T16:25:43.763Z,2.80
2018-02-24T16:28:14.967Z,2.90
2018-02-24T16:30:46.844Z,1.98
2018-02-24T16:33:17.251Z,2.72
2018-02-24T16:35:47.714Z,2.83
2018-02-24T16:38:18.876Z,5.53
2018-02-24T16:40:52.864Z,4.60
2018-02-24T16:43:23.463Z,3.05
2018-02-24T16:45:53.618Z,1.55
2018-02-24T16:48:25.324Z,2.28
2018-02-24T16:50:55.713Z,3.50
2018-02-24T16:53:25.089Z,1.83
2018-02-24T16:55:54.207Z,3.75
2018-02-24T16:58:24.618Z,2.03
2018-02-24T17:00:54.683Z,2.55
2018-02-24T17:03:23.654Z,8.50
2018-02-24T17:05:52.793Z,2.55
2018-02-24T17:08:23.864Z,3.10
2018-02-24T17:10:53.384Z,7.00
2018-02-24T17:13:28.838Z,3.70
2018-02-24T17:16:18.196Z,4.15
2018-02-24T17:18:47.659Z,3.05
2018-02-24T17:21:25.140Z,5.00
2018-02-24T17:23:54.555Z,1.70
2018-02-24T17:26:24.377Z,1.83
2018-02-24T17:28:53.887Z,3.85
2018-02-24T17:31:24.490Z,5.28
2018-02-24T17:33:57.008Z,3.78
2018-02-24T17:36:27.401Z,4.60
2018-02-24T17:39:02.695Z,6.15
2018-02-24T17:41:32.039Z,2.90
2018-02-24T17:44:07.016Z,1.90
2018-02-24T17:46:40.646Z,4.07
2018-02-24T17:49:15.772Z,4.55
2018-02-24T17:51:46.556Z,2.47
2018-02-24T17:54:16.261Z,3.05
2018-02-24T17:56:46.757Z,2.65
2018-02-24T17:59:16.929Z,4.62
2018-02-24T18:01:46.093Z,3.65
2018-02-24T18:04:15.317Z,7.00
2018-02-24T18:06:44.245Z,2.20
2018-02-24T18:09:19.482Z,0.85
2018-02-24T18:11:51.230Z,3.40
2018-02-24T18:14:38.593Z,3.10
2018-02-24T18:17:22.130Z,2.45
2018-02-24T18:19:53.970Z,3.42
2018-02-24T18:22:28.044Z,1.80
2018-02-24T18:24:57.239Z,3.40
2018-02-24T18:27:30.706Z,3.95
2018-02-24T18:30:00.374Z,3.55
2018-02-24T18:32:29.184Z,2.90
2018-02-24T18:34:59.654Z,6.00
2018-02-24T18:37:28.311Z,4.70
2018-02-24T18:39:57.231Z,5.40
2018-02-24T18:42:26.448Z,2.22
2018-02-24T18:44:56.785Z,2.53
2018-02-24T18:47:30.251Z,2.00
2018-02-24T18:50:00.844Z,3.72
2018-02-24T18:52:33.500Z,3.37
2018-02-24T18:55:04.417Z,3.15
2018-02-24T18:57:33.496Z,2.40
2018-02-24T19:00:05.573Z,3.55
2018-02-24T19:02:35.399Z,3.03
2018-02-24T19:05:09.824Z,3.65
2018-02-24T19:07:38.419Z,2.08
2018-02-24T19:10:13.290Z,2.65
2018-02-24T19:12:42.457Z,4.10
2018-02-24T19:15:14.642Z,2.00
2018-02-24T19:17:45.166Z,2.65
2018-02-24T19:20:15.272Z,1.52
2018-02-24T19:22:47.515Z,2.60
2018-02-24T19:25:18.742Z,3.83
2018-02-24T19:27:47.853Z,2.95
2018-02-24T19:30:17.306Z,3.37
2018-02-24T19:32:58.994Z,4.30
2018-02-24T19:35:29.023Z,0.85
2018-02-24T19:37:57.779Z,2.67
2018-02-24T19:40:27.077Z,4.80
2018-02-24T19:42:57.265Z,3.40
2018-02-24T19:45:43.443Z,1.50
2018-02-24T19:48:28.997Z,2.45
2018-02-24T19:50:57.699Z,5.15
2018-02-24T19:53:29.356Z,2.92
2018-02-24T19:55:58.069Z,3.10
2018-02-24T19:58:31.228Z,3.15
2018-02-24T20:01:15.256Z,3.60
2018-02-24T20:04:05.939Z,2.35
2018-02-24T20:06:36.346Z,3.15
2018-02-24T20:09:08.452Z,1.52
2018-02-24T20:11:37.827Z,4.68
2018-02-24T20:14:07.658Z,2.83
2018-02-24T20:16:36.979Z,3.45
2018-02-24T20:19:06.833Z,1.83
2018-02-24T20:21:37.881Z,3.87
2018-02-24T20:24:09.459Z,6.43
2018-02-24T20:26:43.859Z,2.83
2018-02-24T20:29:12.691Z,3.72
2018-02-24T20:31:42.425Z,4.03
2018-02-24T20:34:19.589Z,3.22
2018-02-24T20:36:55.989Z,2.03
2018-02-24T20:39:25.421Z,3.15
2018-02-24T20:41:56.616Z,2.78
2018-02-24T20:44:25.585Z,4.97
2018-02-24T20:46:54.521Z,3.78
2018-02-24T20:49:23.199Z,3.10
2018-02-24T20:51:52.489Z,4.82
2018-02-24T20:54:30.598Z,4.93
2018-02-24T20:56:59.502Z,4.47
2018-02-24T20:59:28.993Z,3.80
2018-02-24T21:01:59.984Z,4.35
2018-02-24T21:04:31.107Z,4.10
2018-02-24T21:07:01.371Z,2.20
2018-02-24T21:09:30.079Z,3.95
2018-02-24T21:11:59.482Z,5.32
2018-02-24T21:14:30.069Z,3.28
2018-02-24T21:17:05.070Z,2.87
2018-02-24T21:19:37.568Z,4.75
2018-02-24T21:22:11.227Z,3.72
2018-02-24T21:24:53.421Z,3.75
2018-02-24T21:27:25.261Z,3.05
2018-02-24T21:30:05.887Z,2.35
2018-02-24T21:32:40.966Z,3.25
2018-02-24T21:35:10.874Z,5.32
2018-02-24T21:37:39.993Z,3.78
2018-02-24T21:40:10.003Z,2.28
2018-02-24T21:42:59.900Z,5.30
2018-02-24T21:45:39.832Z,6.30
2018-02-24T21:48:10.076Z,3.80
2018-02-24T21:50:41.320Z,3.53
2018-02-24T21:53:10.931Z,3.37
2018-02-24T21:55:39.831Z,3.62
2018-02-24T21:58:09.080Z,2.65
2018-02-24T22:00:38.769Z,3.62
2018-02-24T22:03:07.672Z,2.67
2018-02-24T22:05:37.200Z,3.92
2018-02-24T22:08:06.236Z,5.40
2018-02-24T22:10:35.820Z,1.60
2018-02-24T22:13:05.386Z,3.62
2018-02-24T22:15:44.707Z,2.65
2018-02-24T22:18:33.689Z,4.87
2018-02-24T22:21:04.041Z,4.12
2018-02-24T22:23:33.124Z,2.37
2018-02-24T22:26:02.873Z,4.45
2018-02-24T22:28:32.607Z,3.58
2018-02-24T22:31:06.970Z,3.35
2018-02-24T22:33:57.478Z,9.57
2018-02-24T22:36:37.612Z,5.50
2018-02-24T22:39:23.902Z,6.07
2018-02-24T22:41:57.818Z,5.68
2018-02-24T22:44:26.990Z,4.12
2018-02-24T22:46:57.982Z,4.70
2018-02-24T22:49:27.770Z,3.08
2018-02-24T22:51:57.317Z,5.53
2018-02-24T22:54:28.205Z,5.18
2018-02-24T22:56:58.027Z,4.35
2018-02-24T23:01:56.936Z,3.53
2018-02-24T23:04:27.538Z,4.40
2018-02-24T23:06:57.377Z,8.07
2018-02-24T23:09:28.134Z,5.15
2018-02-24T23:11:57.237Z,3.95
2018-02-24T23:14:29.684Z,3.30
2018-02-24T23:17:04.542Z,4.78
2018-02-24T23:19:36.790Z,7.62
2018-02-24T23:22:09.163Z,6.35
2018-02-24T23:24:43.341Z,4.45
2018-02-24T23:27:30.703Z,3.30
2018-02-24T23:30:04.219Z,5.70
2018-02-24T23:32:34.451Z,7.72
2018-02-24T23:35:05.073Z,4.90
2018-02-24T23:37:36.459Z,7.60
2018-02-24T23:40:06.483Z,7.53
2018-02-24T23:42:37.937Z,5.30
2018-02-24T23:45:09.228Z,7.03
2018-02-24T23:47:40.045Z,5.05
2018-02-24T23:50:10.084Z,6.62
2018-02-24T23:52:39.775Z,5.30
2018-02-24T23:55:09.767Z,3.72
2018-02-24T23:57:39.715Z,5.40
